KTHV/THV METAR and TAF weather

Enter ICAO airport designator
Station Type Date Time Source
KTHV METAR 2019/06/27 03:53 UTC NOAA

KTHV 270353Z AUTO 28004KT 10SM CLR 24/18 A3010 RMK AO2 SLP189 T02390183


Station Type Date Time Source
KTHV Decoded METAR 2019/06/27 03:53 UTC NOAA

YORK AIRPORT, PA, United States (KTHV) 39-55N 076-53W 144M
Jun 26, 2019 - 11:53 PM EDT / 2019.06.27 0353 UTC
Wind: from the W (280 degrees) at 5 MPH (4 KT):0
Visibility: 10 mile(s):0
Sky conditions: clear
Temperature: 75.0 F (23.9 C)
Dew Point: 64.9 F (18.3 C)
Relative Humidity: 70%
Pressure (altimeter): 30.1 in. Hg (1019 hPa)
ob: KTHV 270353Z AUTO 28004KT 10SM CLR 24/18 A3010 RMK AO2 SLP189 T02390183
cycle: 4

Station Type Date Time Source
KTHV TAF UTC NOAA

Error!

Example: see airport list